createdAt,value
2018-08-04T00:01:56.678Z,98.30
2018-08-04T00:06:59.767Z,99.30
2018-08-04T00:12:02.848Z,99.70
2018-08-04T00:17:05.896Z,99.90
2018-08-04T00:22:08.972Z,99.90
2018-08-04T00:27:12.067Z,99.90
2018-08-04T00:32:15.127Z,99.90
2018-08-04T00:37:18.591Z,99.90
2018-08-04T00:42:21.659Z,99.90
2018-08-04T00:47:24.741Z,99.90
2018-08-04T00:52:27.847Z,99.90
2018-08-04T00:57:30.964Z,99.90
2018-08-04T01:02:34.029Z,99.90
2018-08-04T01:07:37.115Z,99.90
2018-08-04T01:12:40.191Z,99.90
2018-08-04T01:17:43.278Z,99.90
2018-08-04T01:22:46.361Z,99.90
2018-08-04T01:27:49.517Z,99.90
2018-08-04T01:37:56.584Z,99.90
2018-08-04T01:42:59.624Z,99.90
2018-08-04T01:48:02.698Z,99.90
2018-08-04T01:53:05.893Z,99.90
2018-08-04T01:58:08.932Z,99.90
2018-08-04T02:03:12.018Z,99.90
2018-08-04T02:08:15.099Z,99.90
2018-08-04T02:13:19.257Z,99.90
2018-08-04T02:18:22.328Z,99.90
2018-08-04T02:23:25.400Z,99.90
2018-08-04T02:28:28.512Z,99.90
2018-08-04T02:33:31.598Z,99.90
2018-08-04T02:38:34.696Z,99.90
2018-08-04T02:43:37.849Z,99.90
2018-08-04T02:48:41.007Z,99.90
2018-08-04T02:53:44.041Z,99.90
2018-08-04T02:58:47.096Z,99.90
2018-08-04T03:03:50.201Z,99.90
2018-08-04T03:08:54.321Z,99.90
2018-08-04T03:13:57.505Z,99.90
2018-08-04T03:19:01.452Z,99.90
2018-08-04T03:24:04.763Z,99.90
2018-08-04T03:29:07.848Z,99.90
2018-08-04T03:34:10.930Z,99.90
2018-08-04T03:39:14.005Z,99.90
2018-08-04T03:44:17.214Z,99.90
2018-08-04T03:49:20.357Z,99.90
2018-08-04T03:54:23.422Z,99.90
2018-08-04T03:59:26.596Z,99.90
2018-08-04T04:04:29.753Z,99.90
2018-08-04T04:09:32.843Z,99.90
2018-08-04T04:14:35.883Z,99.90
2018-08-04T04:19:38.941Z,99.90
2018-08-04T04:24:42.119Z,99.90
2018-08-04T04:29:45.339Z,99.90
2018-08-04T04:34:48.407Z,99.90
2018-08-04T04:39:52.465Z,99.90
2018-08-04T04:44:55.536Z,99.90
2018-08-04T04:49:58.718Z,99.90
2018-08-04T04:55:01.792Z,99.90
2018-08-04T05:00:05.445Z,99.90
2018-08-04T05:05:09.136Z,99.90
2018-08-04T05:10:12.355Z,99.90
2018-08-04T05:15:15.483Z,99.90
2018-08-04T05:20:18.613Z,99.90
2018-08-04T05:25:22.005Z,99.90
2018-08-04T05:30:25.070Z,99.90
2018-08-04T05:35:28.247Z,99.90
2018-08-04T05:40:31.406Z,99.90
2018-08-04T05:45:34.511Z,99.90
2018-08-04T05:50:37.555Z,99.90
2018-08-04T05:55:40.616Z,99.90
2018-08-04T06:00:43.753Z,99.90
2018-08-04T06:05:46.832Z,99.90
2018-08-04T06:10:49.991Z,99.60
2018-08-04T06:15:53.089Z,99.70
2018-08-04T06:20:56.188Z,98.30
2018-08-04T06:25:59.302Z,96.80
2018-08-04T06:31:02.397Z,93.60
2018-08-04T06:36:05.738Z,91.30
2018-08-04T06:41:08.802Z,87.90
2018-08-04T06:46:11.859Z,85.60
2018-08-04T06:51:14.912Z,84.70
2018-08-04T06:56:18.005Z,84.30
2018-08-04T07:01:21.179Z,80.20
2018-08-04T07:06:24.226Z,79.20
2018-08-04T07:11:27.312Z,76.10
2018-08-04T07:16:30.435Z,71.30
2018-08-04T07:21:33.596Z,69.20
2018-08-04T07:26:37.826Z,67.30
2018-08-04T07:31:40.987Z,63.50
2018-08-04T07:36:44.144Z,62.80
2018-08-04T07:41:47.251Z,62.00
2018-08-04T07:46:50.442Z,58.10
2018-08-04T07:51:53.514Z,56.50
2018-08-04T07:56:56.596Z,54.90
2018-08-04T08:02:00.024Z,54.60
2018-08-04T08:07:03.164Z,54.50
2018-08-04T08:12:06.256Z,52.60
2018-08-04T08:17:09.326Z,52.90
2018-08-04T08:22:12.726Z,52.50
2018-08-04T08:27:16.358Z,51.10
2018-08-04T08:32:19.871Z,51.00
2018-08-04T08:37:23.368Z,52.70
2018-08-04T08:42:26.850Z,54.40
2018-08-04T08:47:30.200Z,51.90
2018-08-04T08:52:33.637Z,52.30
2018-08-04T08:57:37.089Z,51.50
2018-08-04T09:02:40.402Z,52.90
2018-08-04T09:12:46.670Z,53.40
2018-08-04T09:17:50.054Z,54.40
2018-08-04T09:22:53.394Z,54.20
2018-08-04T09:27:56.753Z,55.60
2018-08-04T09:33:00.089Z,52.10
2018-08-04T09:38:03.519Z,51.90
2018-08-04T09:43:06.897Z,54.10
2018-08-04T09:48:10.254Z,54.10
2018-08-04T09:53:13.686Z,55.50
2018-08-04T09:58:16.817Z,56.30
2018-08-04T10:03:19.899Z,54.80
2018-08-04T10:08:22.972Z,52.20
2018-08-04T10:13:26.084Z,52.30
2018-08-04T10:18:29.213Z,53.20
2018-08-04T10:23:32.290Z,53.80
2018-08-04T10:28:35.721Z,54.60
2018-08-04T10:33:38.851Z,54.20
2018-08-04T10:38:42.050Z,53.30
2018-08-04T10:43:45.088Z,57.10
2018-08-04T10:48:48.169Z,53.70
2018-08-04T10:53:51.257Z,54.40
2018-08-04T10:58:54.344Z,51.90
2018-08-04T11:03:57.491Z,52.90
2018-08-04T11:09:00.554Z,53.10
2018-08-04T11:14:04.209Z,54.90
2018-08-04T11:19:07.426Z,54.10
2018-08-04T11:24:10.627Z,52.60
2018-08-04T11:29:20.149Z,51.60
2018-08-04T11:34:23.218Z,53.60
2018-08-04T11:39:26.296Z,54.10
2018-08-04T11:44:29.368Z,55.10
2018-08-04T11:49:32.471Z,54.20
2018-08-04T11:54:35.621Z,51.90
2018-08-04T11:59:38.796Z,51.90
2018-08-04T12:04:41.865Z,52.40
2018-08-04T12:09:45.042Z,51.10
2018-08-04T12:14:48.132Z,50.80
2018-08-04T12:19:51.300Z,51.70
2018-08-04T12:24:54.511Z,52.50
2018-08-04T12:30:02.391Z,51.90
2018-08-04T12:35:05.813Z,53.00
2018-08-04T12:40:08.960Z,52.90
2018-08-04T12:45:12.073Z,51.30
2018-08-04T12:50:15.161Z,52.70
2018-08-04T12:55:18.250Z,53.20
2018-08-04T13:00:21.525Z,52.70
2018-08-04T13:05:24.659Z,52.80
2018-08-04T13:10:27.736Z,54.40
2018-08-04T13:15:30.912Z,54.10
2018-08-04T13:20:34.033Z,52.80
2018-08-04T13:25:37.209Z,52.60
2018-08-04T13:30:40.277Z,52.60
2018-08-04T13:35:43.403Z,53.00
2018-08-04T13:40:46.616Z,53.30
2018-08-04T13:51:01.104Z,53.30
2018-08-04T13:56:04.201Z,55.50
2018-08-04T14:01:07.340Z,53.20
2018-08-04T14:06:10.479Z,52.80
2018-08-04T14:11:13.570Z,52.90
2018-08-04T14:16:16.668Z,52.50
2018-08-04T14:26:22.683Z,55.60
2018-08-04T14:31:25.940Z,54.50
2018-08-04T14:36:30.021Z,55.20
2018-08-04T14:41:33.208Z,55.10
2018-08-04T14:46:36.443Z,55.90
2018-08-04T14:51:39.510Z,56.00
2018-08-04T14:56:42.631Z,54.10
2018-08-04T15:01:45.783Z,52.70
2018-08-04T15:06:48.864Z,55.70
2018-08-04T15:11:52.000Z,53.80
2018-08-04T15:16:55.058Z,53.60
2018-08-04T15:21:58.091Z,54.70
2018-08-04T15:27:01.173Z,53.30
2018-08-04T15:32:04.290Z,54.80
2018-08-04T15:37:07.391Z,54.90
2018-08-04T15:42:10.493Z,53.80
2018-08-04T15:47:13.635Z,55.30
2018-08-04T15:52:16.742Z,54.50
2018-08-04T15:57:19.809Z,56.20
2018-08-04T16:02:22.873Z,55.80
2018-08-04T16:07:25.955Z,56.30
2018-08-04T16:12:29.004Z,55.60
2018-08-04T16:17:32.148Z,57.90
2018-08-04T16:22:35.258Z,56.80
2018-08-04T16:27:38.361Z,57.00
2018-08-04T16:32:41.604Z,57.60
2018-08-04T16:37:44.638Z,57.40
2018-08-04T16:42:47.752Z,58.30
2018-08-04T16:47:50.814Z,59.20
2018-08-04T16:52:53.917Z,60.00
2018-08-04T16:57:57.014Z,61.50
2018-08-04T17:03:00.144Z,61.60
2018-08-04T17:08:03.306Z,62.60
2018-08-04T17:13:06.436Z,63.70
2018-08-04T17:18:09.615Z,64.40
2018-08-04T17:23:12.668Z,64.60
2018-08-04T17:28:15.712Z,65.20
2018-08-04T17:33:18.747Z,67.00
2018-08-04T17:38:21.813Z,68.10
2018-08-04T17:43:24.931Z,69.00
2018-08-04T17:48:28.072Z,70.70
2018-08-04T17:53:31.176Z,72.70
2018-08-04T17:58:34.536Z,72.00
2018-08-04T18:03:37.605Z,75.70
2018-08-04T18:08:40.674Z,74.30
2018-08-04T18:13:43.797Z,75.50
2018-08-04T18:18:46.908Z,75.40
2018-08-04T18:23:49.988Z,75.80
2018-08-04T18:28:54.149Z,76.30
2018-08-04T18:33:57.237Z,77.90
2018-08-04T18:39:00.365Z,78.70
2018-08-04T18:44:03.485Z,79.50
2018-08-04T18:49:06.720Z,81.50
2018-08-04T18:54:09.838Z,83.00
2018-08-04T18:59:12.928Z,84.10
2018-08-04T19:04:16.074Z,85.90
2018-08-04T19:09:20.222Z,89.70
2018-08-04T19:14:23.797Z,90.20
2018-08-04T19:19:28.120Z,90.90
2018-08-04T19:24:31.293Z,92.20
2018-08-04T19:29:35.512Z,93.10
2018-08-04T19:34:38.611Z,94.40
2018-08-04T19:39:41.695Z,96.00
2018-08-04T19:44:44.786Z,96.60
2018-08-04T19:49:47.921Z,97.20
2018-08-04T19:59:53.871Z,99.80
2018-08-04T20:04:57.146Z,99.90
2018-08-04T20:10:00.250Z,99.90
2018-08-04T20:15:03.340Z,99.90
2018-08-04T20:20:06.429Z,99.90
2018-08-04T20:25:09.528Z,99.90
2018-08-04T20:30:13.648Z,99.90
2018-08-04T20:35:16.737Z,99.90
2018-08-04T20:40:19.835Z,99.90
2018-08-04T20:45:22.948Z,99.90
2018-08-04T20:50:26.077Z,99.90
2018-08-04T20:55:29.260Z,99.90
2018-08-04T21:00:38.901Z,99.90
2018-08-04T21:05:41.996Z,99.90
2018-08-04T21:10:45.202Z,99.90
2018-08-04T21:15:48.332Z,99.90
2018-08-04T21:20:51.405Z,99.90
2018-08-04T21:30:57.407Z,99.90
2018-08-04T21:36:00.525Z,99.90
2018-08-04T21:41:03.603Z,99.90
2018-08-04T21:46:06.863Z,99.90
2018-08-04T21:51:10.164Z,99.90
2018-08-04T21:56:13.259Z,99.90
2018-08-04T22:01:16.392Z,99.90
2018-08-04T22:06:20.127Z,99.90
2018-08-04T22:11:23.211Z,99.90
2018-08-04T22:16:26.370Z,99.90
2018-08-04T22:21:29.438Z,99.90
2018-08-04T22:26:32.651Z,99.90
2018-08-04T22:31:35.854Z,99.90
2018-08-04T22:36:38.938Z,99.90
2018-08-04T22:41:41.971Z,99.90
2018-08-04T22:46:45.033Z,99.90
2018-08-04T22:51:48.092Z,99.90
2018-08-04T22:56:51.185Z,99.90
2018-08-04T23:01:54.380Z,99.90
2018-08-04T23:06:57.419Z,99.90
2018-08-04T23:12:00.481Z,99.90
2018-08-04T23:17:03.580Z,99.90
2018-08-04T23:22:07.614Z,99.90
2018-08-04T23:27:10.660Z,99.90
2018-08-04T23:32:13.728Z,99.90
2018-08-04T23:37:16.793Z,99.90
2018-08-04T23:42:19.845Z,99.90
2018-08-04T23:47:22.913Z,99.90
2018-08-04T23:52:26.185Z,99.90
2018-08-04T23:57:29.723Z,99.90
